Weather at Searight Airport

Public forecast

Using degrees Fahrenheit for public forecast. Weather courtesy of forecast.io.

Closest aviation weather report (METAR) to Searight Airport

Closest report is Glacier Park International Airport, 30.6 nm (56.6 km) S.

2024/07/13 21:55 (retrieved 37 minutes ago)

KGPI 132155Z 16008KT 10SM CLR 33/11 A2998 RMK AO2 SLP132 T03280106

Closest aviation forecast (TAF) to Searight Airport

Closest forecast is Glacier Park International Airport, 30.6 nm (56.6 km) S.

2024/07/13 18:22 (retrieved 4 hours ago)

TAF KGPI 131720Z 1318/1418 VRB04KT P6SM SKC FM131900 19009KT P6SM SCT150 FM140300 31005KT P6SM SKC FM141500 04005KT P6SM SKC